createdAt,value
2023-05-25T00:00:13.180Z,5.75
2023-05-25T00:01:16.434Z,5.50
2023-05-25T00:02:19.757Z,5.00
2023-05-25T00:03:23.321Z,6.50
2023-05-25T00:04:26.626Z,7.00
2023-05-25T00:05:29.892Z,7.50
2023-05-25T00:06:33.166Z,9.00
2023-05-25T00:07:36.460Z,8.25
2023-05-25T00:08:39.952Z,7.75
2023-05-25T00:09:43.325Z,5.50
2023-05-25T00:10:46.585Z,6.50
2023-05-25T00:11:49.911Z,8.00
2023-05-25T00:12:53.279Z,8.75
2023-05-25T00:13:56.530Z,7.00
2023-05-25T00:14:59.854Z,6.50
2023-05-25T00:16:04.167Z,5.00
2023-05-25T00:17:07.507Z,5.00
2023-05-25T00:18:10.891Z,4.50
2023-05-25T00:19:14.081Z,5.25
2023-05-25T00:20:17.304Z,6.00
2023-05-25T00:21:20.398Z,4.25
2023-05-25T00:22:23.595Z,5.60
2023-05-25T00:23:26.942Z,7.25
2023-05-25T00:24:30.197Z,6.00
2023-05-25T00:25:33.327Z,6.50
2023-05-25T00:26:36.589Z,7.00
2023-05-25T00:27:39.665Z,7.00
2023-05-25T00:28:42.991Z,5.75
2023-05-25T00:29:46.035Z,5.25
2023-05-25T00:30:49.264Z,5.50
2023-05-25T00:31:52.499Z,5.75
2023-05-25T00:32:56.006Z,6.00
2023-05-25T00:33:59.271Z,7.75
2023-05-25T00:35:02.683Z,6.50
2023-05-25T00:36:05.738Z,8.50
2023-05-25T00:37:08.928Z,10.75
2023-05-25T00:38:12.100Z,7.50
2023-05-25T00:39:15.189Z,5.00
2023-05-25T00:40:18.361Z,3.50
2023-05-25T00:41:21.440Z,8.50
2023-05-25T00:42:24.751Z,8.00
2023-05-25T00:43:28.129Z,5.00
2023-05-25T00:44:31.304Z,7.50
2023-05-25T00:45:36.250Z,7.00
2023-05-25T00:46:39.403Z,8.75
2023-05-25T00:47:42.668Z,5.50
2023-05-25T00:48:46.286Z,5.00
2023-05-25T00:49:49.665Z,6.00
2023-05-25T00:50:52.867Z,4.50
2023-05-25T00:51:55.935Z,5.25
2023-05-25T00:52:59.002Z,8.00
2023-05-25T00:54:02.212Z,8.25
2023-05-25T00:55:05.401Z,7.00
2023-05-25T00:56:08.674Z,6.50
2023-05-25T00:57:11.837Z,5.00
2023-05-25T00:58:14.920Z,5.00
2023-05-25T00:59:17.998Z,7.50
2023-05-25T01:00:21.172Z,7.00
2023-05-25T01:01:24.789Z,6.00
2023-05-25T01:02:28.042Z,5.50
2023-05-25T01:03:31.507Z,6.50
2023-05-25T01:04:34.737Z,7.75
2023-05-25T01:05:38.110Z,6.50
2023-05-25T01:06:41.491Z,6.00
2023-05-25T01:07:44.866Z,6.50
2023-05-25T01:08:48.059Z,7.00
2023-05-25T01:09:51.463Z,6.00
2023-05-25T01:10:54.634Z,6.00
2023-05-25T01:11:58.119Z,5.80
2023-05-25T01:13:01.305Z,5.50
2023-05-25T01:14:04.703Z,6.00
2023-05-25T01:15:07.883Z,6.00
2023-05-25T01:16:11.068Z,6.50
2023-05-25T01:17:14.341Z,7.00
2023-05-25T01:18:17.521Z,7.75
2023-05-25T01:19:20.823Z,8.00
2023-05-25T01:20:24.052Z,7.25
2023-05-25T01:21:27.381Z,5.50
2023-05-25T01:22:30.659Z,6.25
2023-05-25T01:23:33.943Z,7.50
2023-05-25T01:24:37.135Z,8.00
2023-05-25T01:25:40.423Z,8.00
2023-05-25T01:26:43.802Z,9.25
2023-05-25T01:27:47.301Z,7.00
2023-05-25T01:28:50.777Z,3.75
2023-05-25T01:29:53.867Z,6.00
2023-05-25T01:30:56.970Z,5.20
2023-05-25T01:32:00.292Z,5.00
2023-05-25T01:33:03.479Z,6.25
2023-05-25T01:34:07.280Z,5.75
2023-05-25T01:35:10.885Z,5.00
2023-05-25T01:36:14.668Z,5.00
2023-05-25T01:37:18.360Z,6.50
2023-05-25T01:38:21.848Z,5.50
2023-05-25T01:39:25.544Z,5.00
2023-05-25T01:40:29.052Z,5.50
2023-05-25T01:41:32.180Z,5.75
2023-05-25T01:42:35.920Z,6.00
2023-05-25T01:43:39.498Z,5.75
2023-05-25T01:44:42.778Z,5.75
2023-05-25T01:45:46.878Z,4.75
2023-05-25T01:46:50.423Z,6.25
2023-05-25T01:47:53.931Z,6.50
2023-05-25T01:48:57.656Z,5.00
2023-05-25T01:50:00.935Z,5.00
2023-05-25T01:51:04.654Z,4.50
2023-05-25T01:52:08.460Z,4.00
2023-05-25T01:53:12.327Z,6.00
2023-05-25T01:54:15.824Z,7.00
2023-05-25T01:55:20.126Z,5.00
2023-05-25T01:56:23.524Z,5.00
2023-05-25T01:57:27.002Z,4.75
2023-05-25T01:58:30.693Z,4.50
2023-05-25T01:59:34.109Z,4.00
2023-05-25T02:00:37.886Z,4.25
2023-05-25T02:01:41.903Z,5.75
2023-05-25T02:02:46.314Z,6.25
2023-05-25T02:03:50.046Z,5.25
2023-05-25T02:04:53.577Z,5.00
2023-05-25T02:05:57.277Z,5.50
2023-05-25T02:07:00.689Z,5.25
2023-05-25T02:08:04.738Z,4.00
2023-05-25T02:09:08.257Z,2.50
2023-05-25T02:10:12.260Z,4.00
2023-05-25T02:11:16.054Z,5.00
2023-05-25T02:12:19.752Z,5.00
2023-05-25T02:13:23.127Z,5.00
2023-05-25T02:14:26.823Z,3.50
2023-05-25T02:15:30.410Z,6.00
2023-05-25T02:16:34.046Z,8.25
2023-05-25T02:17:37.833Z,9.00
2023-05-25T02:18:41.396Z,7.00
2023-05-25T02:19:45.051Z,4.50
2023-05-25T02:20:48.596Z,5.00
2023-05-25T02:21:52.478Z,6.00
2023-05-25T02:22:56.715Z,6.00
2023-05-25T02:24:00.794Z,7.00
2023-05-25T02:25:04.789Z,7.00
2023-05-25T02:26:08.590Z,6.50
2023-05-25T02:27:12.263Z,5.50
2023-05-25T02:28:15.810Z,4.00
2023-05-25T02:29:19.461Z,4.00
2023-05-25T02:30:23.681Z,6.00
2023-05-25T02:31:27.408Z,5.00
2023-05-25T02:32:30.958Z,5.00
2023-05-25T02:33:34.752Z,6.00
2023-05-25T02:34:38.755Z,5.00
2023-05-25T02:35:42.485Z,6.50
2023-05-25T02:36:46.331Z,7.00
2023-05-25T02:37:51.127Z,5.50
2023-05-25T02:38:55.275Z,5.50
2023-05-25T02:39:58.974Z,6.50
2023-05-25T02:41:02.645Z,6.00
2023-05-25T02:42:06.370Z,5.00
2023-05-25T02:43:10.348Z,5.75
2023-05-25T02:44:14.471Z,7.75
2023-05-25T02:45:18.347Z,8.75
2023-05-25T02:46:22.079Z,8.75
2023-05-25T02:47:25.694Z,8.00
2023-05-25T02:48:29.336Z,8.50
2023-05-25T02:49:33.026Z,10.00
2023-05-25T02:50:37.046Z,9.00
2023-05-25T02:51:40.515Z,8.00
2023-05-25T02:52:45.051Z,10.00
2023-05-25T02:53:49.125Z,8.00
2023-05-25T02:54:52.828Z,8.25
2023-05-25T02:55:56.719Z,8.50
2023-05-25T02:57:00.831Z,8.50
2023-05-25T02:58:04.840Z,7.25
2023-05-25T02:59:08.837Z,8.50
2023-05-25T03:00:13.249Z,9.00
2023-05-25T03:01:17.156Z,7.50
2023-05-25T03:02:21.248Z,7.25
2023-05-25T03:03:25.139Z,6.25
2023-05-25T03:04:29.247Z,6.00
2023-05-25T03:05:32.833Z,7.25
2023-05-25T03:06:37.046Z,6.50
2023-05-25T03:07:41.048Z,6.75
2023-05-25T03:08:44.733Z,5.25
2023-05-25T03:09:48.641Z,4.50
2023-05-25T03:10:52.535Z,5.00
2023-05-25T03:11:55.925Z,5.50
2023-05-25T03:12:59.987Z,5.00
2023-05-25T03:14:03.618Z,5.50
2023-05-25T03:15:07.094Z,5.00
2023-05-25T03:16:11.371Z,6.00
2023-05-25T03:17:15.105Z,6.00
2023-05-25T03:18:18.901Z,5.50
2023-05-25T03:19:22.621Z,5.50
2023-05-25T03:20:26.315Z,4.50
2023-05-25T03:21:29.883Z,3.50
2023-05-25T03:22:33.574Z,4.00
2023-05-25T03:23:36.974Z,4.25
2023-05-25T03:24:40.757Z,5.25
2023-05-25T03:25:44.546Z,5.00
2023-05-25T03:26:48.456Z,4.50
2023-05-25T03:27:52.056Z,6.25
2023-05-25T03:28:56.060Z,5.50
2023-05-25T03:29:59.751Z,7.00
2023-05-25T03:31:03.337Z,6.00
2023-05-25T03:32:06.899Z,6.00
2023-05-25T03:33:10.145Z,6.00
2023-05-25T03:34:13.695Z,5.00
2023-05-25T03:35:17.379Z,5.50
2023-05-25T03:36:20.641Z,4.75
2023-05-25T03:37:24.644Z,6.50
2023-05-25T03:38:28.977Z,6.75
2023-05-25T03:39:32.880Z,6.00
2023-05-25T03:40:36.891Z,8.50
2023-05-25T03:41:40.580Z,9.00
2023-05-25T03:42:44.391Z,10.00
2023-05-25T03:43:48.279Z,8.00
2023-05-25T03:44:51.967Z,5.00
2023-05-25T03:45:55.835Z,7.00
2023-05-25T03:46:59.456Z,7.50
2023-05-25T03:48:03.022Z,6.00
2023-05-25T03:49:07.255Z,5.00
2023-05-25T03:50:11.353Z,5.00
2023-05-25T03:51:15.067Z,6.50
2023-05-25T03:52:18.693Z,5.75
2023-05-25T03:53:22.541Z,5.25
2023-05-25T03:54:26.152Z,5.25
2023-05-25T03:55:30.341Z,6.00
2023-05-25T03:56:34.030Z,5.50
2023-05-25T03:57:37.516Z,6.00
2023-05-25T03:58:41.014Z,5.75
2023-05-25T03:59:44.913Z,5.50
2023-05-25T04:00:48.624Z,5.50
2023-05-25T04:01:52.192Z,5.50
2023-05-25T04:02:56.490Z,4.50
2023-05-25T04:04:00.762Z,5.50
2023-05-25T04:05:04.509Z,6.25
2023-05-25T04:06:08.400Z,6.50
2023-05-25T04:07:12.097Z,6.75
2023-05-25T04:08:15.583Z,6.00
2023-05-25T04:09:19.277Z,6.75
2023-05-25T04:10:23.283Z,6.00
2023-05-25T04:11:27.176Z,6.50
2023-05-25T04:12:30.774Z,6.75
2023-05-25T04:13:34.871Z,8.00
2023-05-25T04:14:38.873Z,8.00
2023-05-25T04:15:42.831Z,6.50
2023-05-25T04:16:46.515Z,6.25
2023-05-25T04:17:50.308Z,8.00
2023-05-25T04:18:54.159Z,7.75
2023-05-25T04:19:57.888Z,6.50
2023-05-25T04:21:04.676Z,8.25
2023-05-25T04:22:06.877Z,8.25
2023-05-25T04:23:10.992Z,8.00
2023-05-25T04:24:14.881Z,8.00
2023-05-25T04:25:18.134Z,6.00
2023-05-25T04:26:22.274Z,10.00
2023-05-25T04:27:26.092Z,11.25
2023-05-25T04:28:30.371Z,9.50
2023-05-25T04:29:34.015Z,8.25
2023-05-25T04:30:37.557Z,9.00
2023-05-25T04:31:40.925Z,6.50
2023-05-25T04:32:45.305Z,5.50
2023-05-25T04:33:48.739Z,7.00
2023-05-25T04:34:52.235Z,6.75
2023-05-25T04:35:56.028Z,6.75
2023-05-25T04:36:59.633Z,6.25
2023-05-25T04:38:03.325Z,8.00
2023-05-25T04:39:07.004Z,7.00
2023-05-25T04:40:10.431Z,6.75
2023-05-25T04:41:14.086Z,5.50
2023-05-25T04:42:17.880Z,7.00
2023-05-25T04:43:21.579Z,7.00
2023-05-25T04:44:25.270Z,6.00
2023-05-25T04:45:28.767Z,4.75
2023-05-25T04:46:32.695Z,6.50
2023-05-25T04:47:36.261Z,5.50
2023-05-25T04:48:39.840Z,5.50
2023-05-25T04:49:43.306Z,7.25
2023-05-25T04:50:46.715Z,5.00
2023-05-25T04:51:50.314Z,5.00
2023-05-25T04:52:53.693Z,5.25
2023-05-25T04:53:57.489Z,6.00
2023-05-25T04:55:00.981Z,5.50
2023-05-25T04:56:04.670Z,7.00
2023-05-25T04:57:08.160Z,8.50
2023-05-25T04:58:13.472Z,5.75
2023-05-25T04:59:16.180Z,4.25
2023-05-25T05:00:19.653Z,6.00
2023-05-25T05:01:23.084Z,6.50
2023-05-25T05:02:26.554Z,5.50
2023-05-25T05:03:30.386Z,4.75
2023-05-25T05:04:34.431Z,4.50
2023-05-25T05:05:38.142Z,5.75
2023-05-25T05:06:41.620Z,6.75
2023-05-25T05:07:45.305Z,5.40
2023-05-25T05:08:48.799Z,5.50
2023-05-25T05:09:52.362Z,5.00
2023-05-25T05:10:56.296Z,4.50
2023-05-25T05:11:59.881Z,6.00
2023-05-25T05:13:03.262Z,5.50
2023-05-25T05:14:06.870Z,4.50
2023-05-25T05:15:10.666Z,4.50
2023-05-25T05:16:13.999Z,4.00
2023-05-25T05:17:17.735Z,4.50
2023-05-25T05:18:24.398Z,4.50
2023-05-25T05:19:28.604Z,5.00
2023-05-25T05:20:32.455Z,3.75
2023-05-25T05:21:37.147Z,5.00
2023-05-25T05:22:41.527Z,6.50
2023-05-25T05:23:45.583Z,2.75
2023-05-25T05:24:49.254Z,3.00
2023-05-25T05:25:53.329Z,6.25
2023-05-25T05:26:59.195Z,4.50
2023-05-25T05:28:02.254Z,4.25
2023-05-25T05:29:06.791Z,4.25
2023-05-25T05:30:10.772Z,3.00
2023-05-25T05:31:14.491Z,3.00
2023-05-25T05:32:17.858Z,5.00
2023-05-25T05:33:21.944Z,6.00
2023-05-25T05:34:26.226Z,4.75
2023-05-25T05:35:29.950Z,4.50
2023-05-25T05:36:42.050Z,5.00
2023-05-25T05:37:40.625Z,5.00
2023-05-25T05:38:44.414Z,5.00
2023-05-25T05:39:48.409Z,4.00
2023-05-25T05:40:52.316Z,4.50
2023-05-25T05:41:56.685Z,3.00
2023-05-25T05:43:00.547Z,2.50
2023-05-25T05:44:05.130Z,4.00
2023-05-25T05:45:09.032Z,3.00
2023-05-25T05:46:12.662Z,3.00
2023-05-25T05:47:16.728Z,4.50
2023-05-25T05:48:20.513Z,4.25
2023-05-25T05:49:24.431Z,5.00
2023-05-25T05:50:28.524Z,6.00
2023-05-25T05:51:32.318Z,4.50
2023-05-25T05:52:36.110Z,3.00
2023-05-25T05:53:40.012Z,3.00
2023-05-25T05:54:43.829Z,3.75
2023-05-25T05:55:48.757Z,6.00
2023-05-25T05:56:52.954Z,6.50
2023-05-25T05:57:56.733Z,5.00
2023-05-25T05:59:00.440Z,5.50
2023-05-25T06:00:04.363Z,5.00
2023-05-25T06:01:07.915Z,5.00
2023-05-25T06:02:11.861Z,5.50
2023-05-25T06:03:15.622Z,5.00
2023-05-25T06:04:19.446Z,5.50
2023-05-25T06:05:23.493Z,5.50
2023-05-25T06:06:27.542Z,4.75
2023-05-25T06:07:31.108Z,3.00
2023-05-25T06:08:35.005Z,3.00
2023-05-25T06:09:38.490Z,4.25
2023-05-25T06:10:41.775Z,4.75
2023-05-25T06:11:45.165Z,7.00
2023-05-25T06:12:49.100Z,5.50
2023-05-25T06:13:52.766Z,3.00
2023-05-25T06:14:56.266Z,3.00
2023-05-25T06:15:59.551Z,4.00
2023-05-25T06:17:03.500Z,4.50
2023-05-25T06:18:13.971Z,5.00
2023-05-25T06:19:17.372Z,6.00
2023-05-25T06:20:21.035Z,5.00
2023-05-25T06:21:24.971Z,6.75
2023-05-25T06:22:28.557Z,5.50
2023-05-25T06:23:32.049Z,5.75
2023-05-25T06:24:38.192Z,4.50
2023-05-25T06:25:41.923Z,4.00
2023-05-25T06:26:45.807Z,5.75
2023-05-25T06:28:05.151Z,5.25
2023-05-25T06:29:08.953Z,6.75
2023-05-25T06:30:13.048Z,8.75
2023-05-25T06:31:17.686Z,6.50
2023-05-25T06:32:21.060Z,7.00
2023-05-25T06:33:24.541Z,7.75
2023-05-25T06:34:28.642Z,6.50
2023-05-25T06:35:32.143Z,7.00
2023-05-25T06:36:35.732Z,6.00
2023-05-25T06:37:38.974Z,5.50
2023-05-25T06:38:42.726Z,4.00
2023-05-25T06:39:45.962Z,2.50
2023-05-25T06:44:47.826Z,5.00
2023-05-25T06:45:51.496Z,5.50
2023-05-25T06:46:55.569Z,6.75
2023-05-25T06:47:59.421Z,5.50
2023-05-25T06:49:03.418Z,4.50
2023-05-25T06:50:07.101Z,6.00
2023-05-25T06:51:11.056Z,7.50
2023-05-25T06:52:15.029Z,7.00
2023-05-25T06:53:18.769Z,7.00
2023-05-25T06:54:23.181Z,6.00
2023-05-25T06:55:27.166Z,5.75
2023-05-25T06:56:31.120Z,5.00
2023-05-25T06:57:34.810Z,5.50
2023-05-25T06:58:38.904Z,5.50
2023-05-25T06:59:51.483Z,5.00
2023-05-25T07:00:56.202Z,6.00
2023-05-25T07:02:00.776Z,4.00
2023-05-25T07:03:04.928Z,5.00
2023-05-25T07:04:08.906Z,3.25
2023-05-25T07:05:12.988Z,4.00
2023-05-25T07:06:17.323Z,5.00
2023-05-25T07:07:21.415Z,4.00
2023-05-25T07:08:25.743Z,4.50
2023-05-25T07:09:29.586Z,4.00
2023-05-25T07:10:33.948Z,4.75
2023-05-25T07:11:38.063Z,4.75
2023-05-25T07:12:42.053Z,4.00
2023-05-25T07:13:46.260Z,4.00
2023-05-25T07:14:50.249Z,4.00
2023-05-25T07:15:54.276Z,4.50
2023-05-25T07:16:57.852Z,6.00
2023-05-25T07:18:02.090Z,5.25
2023-05-25T07:19:06.767Z,5.00
2023-05-25T07:20:10.482Z,4.50
2023-05-25T07:21:14.559Z,6.00
2023-05-25T07:22:18.362Z,7.50
2023-05-25T07:23:22.787Z,6.75
2023-05-25T07:24:27.427Z,5.00
2023-05-25T07:25:31.688Z,5.00
2023-05-25T07:26:35.691Z,5.25
2023-05-25T07:27:39.808Z,4.50
2023-05-25T07:28:43.997Z,3.50
2023-05-25T07:29:48.424Z,4.50
2023-05-25T07:30:52.415Z,7.00
2023-05-25T07:31:56.589Z,6.00
2023-05-25T07:33:00.986Z,5.00
2023-05-25T07:34:05.380Z,5.00
2023-05-25T07:35:09.587Z,6.50
2023-05-25T07:36:13.757Z,5.50
2023-05-25T07:37:17.723Z,4.00
2023-05-25T07:38:22.366Z,4.25
2023-05-25T07:39:26.380Z,4.00
2023-05-25T07:40:30.475Z,4.50
2023-05-25T07:41:34.398Z,6.25
2023-05-25T07:42:37.981Z,7.25
2023-05-25T07:43:41.774Z,5.00
2023-05-25T07:44:45.454Z,4.00
2023-05-25T07:45:49.448Z,3.25
2023-05-25T07:46:53.503Z,4.00
2023-05-25T07:47:56.935Z,4.50
2023-05-25T07:49:03.916Z,6.00
2023-05-25T07:50:07.808Z,5.00
2023-05-25T07:51:11.812Z,3.50
2023-05-25T07:52:15.603Z,5.00
2023-05-25T07:53:19.198Z,5.75
2023-05-25T07:54:22.994Z,7.00
2023-05-25T07:55:26.699Z,8.00
2023-05-25T07:56:30.686Z,6.50
2023-05-25T07:57:34.816Z,5.50
2023-05-25T07:58:38.887Z,6.00
2023-05-25T07:59:42.826Z,6.50
2023-05-25T08:00:46.497Z,6.50
2023-05-25T08:01:50.492Z,6.00
2023-05-25T08:02:54.302Z,6.50
2023-05-25T08:03:58.281Z,7.50
2023-05-25T08:05:02.057Z,6.00
2023-05-25T08:06:05.977Z,6.50
2023-05-25T08:07:09.985Z,6.00
2023-05-25T08:08:14.185Z,6.00
2023-05-25T08:09:18.085Z,6.75
2023-05-25T08:10:22.038Z,6.00
2023-05-25T08:11:25.888Z,6.50
2023-05-25T08:12:42.961Z,7.25
2023-05-25T08:13:33.788Z,7.00
2023-05-25T08:14:37.381Z,5.50
2023-05-25T08:15:41.168Z,7.00
2023-05-25T08:18:03.943Z,9.25
2023-05-25T08:19:09.050Z,6.50
2023-05-25T08:20:13.222Z,6.00
2023-05-25T08:21:16.980Z,5.50
2023-05-25T08:22:20.776Z,6.00
2023-05-25T08:23:24.647Z,7.50
2023-05-25T08:24:28.845Z,6.25
2023-05-25T08:25:32.865Z,5.00
2023-05-25T08:26:53.250Z,5.00
2023-05-25T08:27:41.257Z,4.00
2023-05-25T08:28:44.876Z,3.50
2023-05-25T08:29:48.443Z,6.00
2023-05-25T08:30:58.371Z,5.75
2023-05-25T08:32:02.079Z,5.00
2023-05-25T08:33:05.706Z,6.00
2023-05-25T08:34:09.256Z,5.25
2023-05-25T08:35:13.049Z,4.75
2023-05-25T08:36:16.369Z,6.50
2023-05-25T08:37:19.941Z,8.75
2023-05-25T08:38:24.043Z,8.75
2023-05-25T08:39:27.519Z,7.50
2023-05-25T08:40:31.011Z,5.75
2023-05-25T08:41:34.615Z,5.50
2023-05-25T08:42:38.391Z,5.25
2023-05-25T08:43:42.087Z,7.00
2023-05-25T08:44:45.777Z,6.50
2023-05-25T08:45:49.569Z,5.50
2023-05-25T08:46:53.070Z,6.50
2023-05-25T08:47:56.593Z,6.25
2023-05-25T08:49:00.363Z,6.00
2023-05-25T08:50:03.882Z,5.00
2023-05-25T08:51:10.118Z,5.50
2023-05-25T08:52:12.454Z,5.75
2023-05-25T08:53:16.262Z,5.50
2023-05-25T08:54:19.841Z,6.00
2023-05-25T08:55:23.770Z,6.00
2023-05-25T08:56:27.240Z,5.00
2023-05-25T08:57:31.026Z,4.00
2023-05-25T08:58:35.132Z,4.50
2023-05-25T08:59:38.746Z,5.50
2023-05-25T09:00:42.879Z,6.50
2023-05-25T09:01:47.061Z,5.50
2023-05-25T09:02:50.890Z,5.00
2023-05-25T09:03:54.689Z,6.50
2023-05-25T09:04:58.519Z,6.75
2023-05-25T09:06:01.966Z,5.50
2023-05-25T09:07:11.006Z,5.00
2023-05-25T09:08:10.347Z,5.00
2023-05-25T09:09:14.124Z,5.25
2023-05-25T09:10:17.316Z,4.50
2023-05-25T09:11:34.759Z,4.00
2023-05-25T09:12:25.471Z,6.00
2023-05-25T09:13:29.722Z,6.50
2023-05-25T09:14:33.319Z,5.00
2023-05-25T09:15:36.513Z,5.00
2023-05-25T09:16:39.976Z,6.00
2023-05-25T09:17:43.294Z,6.50
2023-05-25T09:18:46.593Z,6.20
2023-05-25T09:19:50.140Z,5.50
2023-05-25T09:20:53.976Z,6.00
2023-05-25T09:22:13.577Z,6.00
2023-05-25T09:23:02.691Z,7.00
2023-05-25T09:24:07.201Z,5.50
2023-05-25T09:25:11.077Z,7.50
2023-05-25T09:26:14.757Z,7.00
2023-05-25T09:27:18.267Z,5.50
2023-05-25T09:29:26.251Z,5.50
2023-05-25T09:30:31.996Z,5.00
2023-05-25T09:31:35.711Z,6.00
2023-05-25T09:32:39.347Z,5.00
2023-05-25T09:33:42.898Z,4.00
2023-05-25T09:34:46.358Z,4.50
2023-05-25T09:35:50.261Z,6.00
2023-05-25T09:36:53.951Z,5.25
2023-05-25T09:37:57.941Z,4.50
2023-05-25T09:39:01.842Z,4.25
2023-05-25T09:40:05.450Z,5.25
2023-05-25T09:41:08.836Z,5.50
2023-05-25T09:42:12.120Z,4.00
2023-05-25T09:43:24.833Z,4.00
2023-05-25T09:44:20.126Z,4.50
2023-05-25T09:45:23.660Z,3.00
2023-05-25T09:46:27.152Z,3.00
2023-05-25T09:47:30.421Z,5.00
2023-05-25T09:48:33.775Z,4.00
2023-05-25T09:49:37.191Z,3.50
2023-05-25T09:50:40.967Z,4.00
2023-05-25T09:51:44.337Z,5.50
2023-05-25T09:52:47.624Z,5.00
2023-05-25T09:53:51.119Z,5.00
2023-05-25T09:54:54.699Z,4.00
2023-05-25T09:55:58.301Z,3.50
2023-05-25T09:57:01.914Z,4.50
2023-05-25T09:58:05.600Z,4.75
2023-05-25T09:59:09.079Z,4.00
2023-05-25T10:00:12.556Z,4.50
2023-05-25T10:01:15.992Z,4.25
2023-05-25T10:02:19.340Z,6.00
2023-05-25T10:03:23.176Z,4.50
2023-05-25T10:04:26.452Z,4.00
2023-05-25T10:05:30.107Z,3.50
2023-05-25T10:06:34.057Z,4.00
2023-05-25T10:07:37.498Z,6.00
2023-05-25T10:08:40.982Z,5.50
2023-05-25T10:09:44.592Z,5.00
2023-05-25T10:10:48.071Z,5.00
2023-05-25T10:11:51.652Z,3.80
2023-05-25T10:12:55.143Z,3.50
2023-05-25T10:13:58.426Z,4.50
2023-05-25T10:15:01.807Z,4.00
2023-05-25T10:16:05.291Z,4.25
2023-05-25T10:17:08.713Z,6.00
2023-05-25T10:18:12.076Z,5.00
2023-05-25T10:19:15.237Z,5.00
2023-05-25T10:20:18.686Z,4.50
2023-05-25T10:21:22.251Z,4.00
2023-05-25T10:22:26.040Z,4.00
2023-05-25T10:23:29.624Z,4.00
2023-05-25T10:24:32.922Z,4.00
2023-05-25T10:25:36.405Z,3.75
2023-05-25T10:26:39.997Z,3.50
2023-05-25T10:27:54.226Z,5.00
2023-05-25T10:28:57.728Z,6.00
2023-05-25T10:30:01.238Z,5.00
2023-05-25T10:31:04.842Z,4.00
2023-05-25T10:32:08.414Z,3.00
2023-05-25T10:33:12.238Z,3.00
2023-05-25T10:34:16.084Z,6.00
2023-05-25T10:35:19.895Z,7.00
2023-05-25T10:36:35.652Z,4.50
2023-05-25T10:37:39.877Z,4.75
2023-05-25T10:38:43.976Z,3.00
2023-05-25T10:39:47.761Z,2.50
2023-05-25T10:40:51.459Z,4.00
2023-05-25T10:41:55.248Z,5.00
2023-05-25T10:42:59.058Z,4.00
2023-05-25T10:44:02.686Z,3.50
2023-05-25T10:45:06.231Z,4.50
2023-05-25T10:46:09.530Z,3.75
2023-05-25T10:47:13.678Z,4.00
2023-05-25T10:48:16.813Z,3.50
2023-05-25T10:49:20.493Z,4.00
2023-05-25T10:50:24.321Z,3.50
2023-05-25T10:51:27.997Z,2.50
2023-05-25T10:52:32.105Z,3.00
2023-05-25T10:53:36.091Z,3.00
2023-05-25T10:54:39.997Z,3.50
2023-05-25T10:55:43.681Z,3.50
2023-05-25T10:56:48.193Z,3.50
2023-05-25T10:57:52.194Z,3.00
2023-05-25T10:58:56.101Z,3.00
2023-05-25T11:00:03.504Z,3.00
2023-05-25T11:01:07.284Z,3.00
2023-05-25T11:02:11.311Z,3.00
2023-05-25T11:03:15.375Z,2.50
2023-05-25T11:04:19.492Z,2.00
2023-05-25T11:05:23.381Z,2.50
2023-05-25T11:06:27.376Z,3.75
2023-05-25T11:07:31.073Z,3.25
2023-05-25T11:08:34.866Z,3.00
2023-05-25T11:09:38.868Z,2.50
2023-05-25T11:10:42.778Z,2.50
2023-05-25T11:11:46.361Z,3.50
2023-05-25T11:12:50.414Z,3.00
2023-05-25T11:13:53.849Z,3.50
2023-05-25T11:14:57.441Z,3.25
2023-05-25T11:16:01.237Z,3.00
2023-05-25T11:17:04.944Z,3.00
2023-05-25T11:18:08.394Z,3.00
2023-05-25T11:19:11.921Z,2.50
2023-05-25T11:20:15.636Z,2.75
2023-05-25T11:21:19.007Z,2.25
2023-05-25T11:22:22.865Z,3.25
2023-05-25T11:23:26.592Z,4.00
2023-05-25T11:24:30.399Z,3.50
2023-05-25T11:25:34.800Z,3.00
2023-05-25T11:26:38.604Z,2.50
2023-05-25T11:27:44.100Z,3.00
2023-05-25T11:28:47.512Z,4.50
2023-05-25T11:29:50.820Z,4.50
2023-05-25T11:30:54.523Z,2.50
2023-05-25T11:32:04.635Z,3.00
2023-05-25T11:33:08.891Z,3.50
2023-05-25T11:34:12.525Z,3.00
2023-05-25T11:35:16.843Z,3.50
2023-05-25T11:36:20.346Z,4.00
2023-05-25T11:37:23.713Z,4.00
2023-05-25T11:38:27.611Z,3.50
2023-05-25T11:39:43.705Z,3.00
2023-05-25T11:40:46.990Z,2.75
2023-05-25T11:41:50.577Z,2.50
2023-05-25T11:42:54.378Z,4.00
2023-05-25T11:43:57.961Z,4.50
2023-05-25T11:45:01.453Z,3.75
2023-05-25T11:46:05.075Z,3.50
2023-05-25T11:47:09.756Z,3.50
2023-05-25T11:48:13.879Z,3.25
2023-05-25T11:49:17.556Z,4.00
2023-05-25T11:50:21.352Z,5.00
2023-05-25T11:51:25.356Z,4.00
2023-05-25T11:52:29.173Z,2.50
2023-05-25T11:53:34.419Z,2.00
2023-05-25T11:54:38.589Z,2.50
2023-05-25T11:55:42.419Z,3.00
2023-05-25T11:56:46.302Z,2.50
2023-05-25T11:57:49.972Z,4.00
2023-05-25T11:58:54.511Z,4.00
2023-05-25T11:59:58.211Z,3.50
2023-05-25T12:01:01.873Z,3.75
2023-05-25T12:02:05.273Z,4.50
2023-05-25T12:03:09.451Z,4.00
2023-05-25T12:04:13.243Z,3.50
2023-05-25T12:05:17.317Z,3.50
2023-05-25T12:06:21.194Z,3.25
2023-05-25T12:07:25.085Z,2.50
2023-05-25T12:08:29.010Z,4.00
2023-05-25T12:09:32.754Z,6.00
2023-05-25T12:10:36.960Z,4.50
2023-05-25T12:11:40.455Z,3.00
2023-05-25T12:12:44.141Z,3.75
2023-05-25T12:13:47.941Z,3.75
2023-05-25T12:14:51.632Z,3.25
2023-05-25T12:15:55.433Z,3.50
2023-05-25T12:17:00.201Z,3.00
2023-05-25T12:18:06.614Z,3.00
2023-05-25T12:19:10.234Z,3.50
2023-05-25T12:20:14.018Z,4.00
2023-05-25T12:21:18.003Z,4.00
2023-05-25T12:22:21.691Z,3.00
2023-05-25T12:23:25.506Z,3.50
2023-05-25T12:24:29.077Z,2.50
2023-05-25T12:25:46.606Z,3.00
2023-05-25T12:26:39.837Z,4.50
2023-05-25T12:27:43.451Z,4.50
2023-05-25T12:28:47.443Z,3.50
2023-05-25T12:29:50.730Z,4.00
2023-05-25T12:30:54.562Z,3.75
2023-05-25T12:31:58.006Z,3.00
2023-05-25T12:33:04.864Z,3.50
2023-05-25T12:34:08.781Z,4.00
2023-05-25T12:35:12.055Z,4.50
2023-05-25T12:36:15.867Z,4.00
2023-05-25T12:37:19.247Z,3.25
2023-05-25T12:38:22.329Z,3.50
2023-05-25T12:39:25.708Z,3.00
2023-05-25T12:40:32.079Z,3.50
2023-05-25T12:41:35.456Z,3.00
2023-05-25T12:42:39.350Z,3.75
2023-05-25T12:43:43.790Z,3.50
2023-05-25T12:44:54.273Z,2.50
2023-05-25T12:46:00.915Z,2.00
2023-05-25T12:47:04.913Z,3.00
2023-05-25T12:48:08.513Z,3.00
2023-05-25T12:49:12.069Z,3.50
2023-05-25T12:50:18.212Z,3.50
2023-05-25T12:51:22.000Z,2.00
2023-05-25T12:52:25.500Z,2.00
2023-05-25T12:53:29.330Z,2.00
2023-05-25T12:54:33.520Z,2.50
2023-05-25T12:55:36.993Z,2.50
2023-05-25T12:56:40.682Z,3.50
2023-05-25T12:57:44.276Z,3.50
2023-05-25T12:58:47.754Z,4.50
2023-05-25T12:59:53.808Z,5.00
2023-05-25T13:00:57.655Z,4.00
2023-05-25T13:02:01.466Z,3.75
2023-05-25T13:03:04.770Z,3.00
2023-05-25T13:04:10.937Z,4.50
2023-05-25T13:05:14.354Z,4.00
2023-05-25T13:06:18.018Z,3.00
2023-05-25T13:07:24.106Z,4.75
2023-05-25T13:08:30.223Z,4.25
2023-05-25T13:09:33.556Z,2.50
2023-05-25T13:10:36.894Z,2.00
2023-05-25T13:11:40.582Z,2.50
2023-05-25T13:12:47.146Z,4.00
2023-05-25T13:13:51.147Z,3.50
2023-05-25T13:14:54.475Z,3.50
2023-05-25T13:15:57.663Z,2.50
2023-05-25T13:17:04.048Z,3.00
2023-05-25T13:18:10.720Z,4.00
2023-05-25T13:19:14.123Z,4.25
2023-05-25T13:20:17.712Z,2.50
2023-05-25T13:21:20.932Z,3.00
2023-05-25T13:22:27.564Z,3.50
2023-05-25T13:23:30.655Z,3.50
2023-05-25T13:24:33.901Z,4.00
2023-05-25T13:25:37.011Z,5.00
2023-05-25T13:26:43.054Z,5.50
2023-05-25T13:27:46.540Z,5.00
2023-05-25T13:28:50.248Z,4.00
2023-05-25T13:29:54.133Z,4.00
2023-05-25T13:30:58.138Z,3.50
2023-05-25T13:32:04.269Z,3.50
2023-05-25T13:33:08.143Z,3.00
2023-05-25T13:34:11.572Z,4.00
2023-05-25T13:35:15.274Z,4.50
2023-05-25T13:36:18.655Z,4.25
2023-05-25T13:37:22.054Z,4.00
2023-05-25T13:38:25.628Z,4.25
2023-05-25T13:39:32.102Z,3.00
2023-05-25T13:40:35.714Z,3.50
2023-05-25T13:41:39.387Z,3.50
2023-05-25T13:42:43.066Z,3.50
2023-05-25T13:43:46.559Z,5.50
2023-05-25T13:44:53.029Z,4.50
2023-05-25T13:45:56.505Z,5.00
2023-05-25T13:46:59.936Z,5.00
2023-05-25T13:48:03.828Z,5.75
2023-05-25T13:49:07.692Z,5.50
2023-05-25T13:50:11.105Z,6.00
2023-05-25T13:51:17.576Z,6.50
2023-05-25T13:52:21.340Z,7.00
2023-05-25T13:53:24.922Z,5.75
2023-05-25T13:54:28.727Z,4.50
2023-05-25T13:55:32.412Z,4.50
2023-05-25T13:56:38.870Z,6.50
2023-05-25T13:57:42.363Z,6.25
2023-05-25T13:58:45.815Z,5.00
2023-05-25T13:59:49.345Z,5.00
2023-05-25T14:00:53.058Z,4.50
2023-05-25T14:01:59.213Z,5.50
2023-05-25T14:03:05.477Z,4.75
2023-05-25T14:04:09.185Z,6.00
2023-05-25T14:05:12.829Z,6.25
2023-05-25T14:06:16.419Z,5.00
2023-05-25T14:07:20.527Z,4.75
2023-05-25T14:08:24.017Z,6.00
2023-05-25T14:09:30.369Z,5.75
2023-05-25T14:10:33.884Z,7.00
2023-05-25T14:11:37.347Z,6.00
2023-05-25T14:12:41.174Z,6.00
2023-05-25T14:13:44.550Z,6.00
2023-05-25T14:15:00.227Z,7.00
2023-05-25T14:16:03.709Z,7.00
2023-05-25T14:17:06.916Z,6.25